We bring you up!

Munich Aviation Company

Munich Aviation Company

Munich Aviation Company

Munich Aviation Company

Sie finden uns auch auf: Munich Aviation Company auf Instagram

Flugwetter Augsburg

[Quelle: ADDS]
METAR
EDMA 070550Z 30006KT 9999 -RA SCT010 OVC014 06/04 Q1009 =
EDMA 070500Z 0706/0715 28010KT 9999 SCT015 BKN030 TEMPO 0706/0711 4500 SHRA BKN010 BKN020CB PROB30 TEMPO 0711/0715 29015G30KT SHRA SCT015 BKN025TCU
TAF
EDMA 070500Z 0706/0715 28010KT 9999 SCT015 BKN030 TEMPO 0706/0711 4500 SHRA BKN010 BKN020CB PROB30 TEMPO 0711/0715 29015G30KT SHRA SCT015 BKN025TCU =

Kontakt